Dades meteomassalio
Diari Summary for Abril 8, 2017 Units:  Metric    English   Both
« Previous Day
Next Day »
Diari Semanal Mensual Anual Personalitzat
  Maxima: Minima: Mijana:
Temperatura: -17.8 °C -11.5 °C -6.6 °C
Rosada: -17.8 °C -18.2 °C -16.6 °C
Humitat: Humidity % 20 % 31 %
Velocitat del vent: 0 km/h 0 km/h 17.1 km/h
Racha vent: 0 km/h - -
Vent:- - ESE
Pressio: 0 hPa 34496.6 hPa -
Pluja: 0 mm    
Historical Graphs
 
 
Tabular Data for Abril 8, 2017
Time Temperature Dew Point Pressure Wind Wind Speed Wind Gust Humidity Rainfall Rate (Hourly) solar Conditions
-17.8 °C -17.8 °C 0 hPa Calm     Humidity % 0 mm SolarRadiationWatts/m^2 W/m2 Conditions
09:49 -11.5 °C -14.8 °C 34625.2 hPa Calm     67 % 0 mm 381.0 W/m2 OVC
09:54 -11.3 °C -14.8 °C 34625.2 hPa Calm     65 % 0 mm 399.0 W/m2 CLR
09:59 -10.9 °C -14.7 °C 34625.2 hPa Calm     63 % 0 mm 415.0 W/m2 CLR
10:04 -10.7 °C -14.6 °C 34625.2 hPa Calm     62 % 0 mm 432.0 W/m2 CLR
10:09 -10.3 °C -14.4 °C 34611.7 hPa Calm     61 % 0 mm 450.0 W/m2 CLR
10:14 -10.1 °C -14.6 °C 34611.7 hPa Calm     58 % 0 mm 466.0 W/m2 CLR
10:19 -9.9 °C -14.7 °C 34611.7 hPa Calm     56 % 0 mm 482.0 W/m2 CLR
10:24 -9.7 °C -14.8 °C 34611.7 hPa Calm     54 % 0 mm 494.0 W/m2 CLR
10:29 -9.6 °C -15 °C 34611.7 hPa Calm     52 % 0 mm 508.0 W/m2 CLR
10:34 -9.3 °C -14.8 °C 34611.7 hPa Calm     52 % 0 mm 524.0 W/m2 CLR
10:39 -9 °C -14.9 °C 34611.7 hPa Calm     49 % 0 mm 540.0 W/m2 CLR
10:44 -8.8 °C -15.1 °C 34611.7 hPa ENE 3.1 km/h   47 % 0 mm 554.0 W/m2 CLR
10:49 -8.7 °C -16 °C 34611.7 hPa Calm     41 % 0 mm 570.0 W/m2 CLR
10:55 -8.5 °C -15.5 °C 34611.7 hPa Calm     43 % 0 mm 585.0 W/m2 CLR
11:00 -8.4 °C -15.8 °C 34601.5 hPa Calm     41 % 0 mm 599.0 W/m2 CLR
11:05 -8.2 °C -15.6 °C 34601.5 hPa Calm     41 % 0 mm 608.0 W/m2 CLR
11:10 -8 °C -15.8 °C 34601.5 hPa NE 12.9 km/h 12.9 km/h 39 % 0 mm 621.0 W/m2 CLR
11:15 -7.8 °C -15.9 °C 34601.5 hPa ENE 9 km/h   38 % 0 mm 635.0 W/m2 CLR
11:20 -7.6 °C -16.6 °C 34601.5 hPa Calm     34 % 0 mm 652.0 W/m2 CLR
11:25 -7.4 °C -16.2 °C 34601.5 hPa Calm     35 % 0 mm 664.0 W/m2 CLR
11:30 -7.1 °C -16.6 °C 34601.5 hPa Calm     32 % 0 mm 673.0 W/m2 CLR
11:35 -6.9 °C -16.4 °C 34601.5 hPa Calm     32 % 0 mm 684.0 W/m2 CLR
11:40 -6.8 °C -16.1 °C 34601.5 hPa Calm     33 % 0 mm 698.0 W/m2 CLR
11:45 -6.7 °C -16.3 °C 34601.5 hPa ENE 6 km/h 6 km/h 32 % 0 mm 708.0 W/m2 CLR
11:50 -6.6 °C -16.7 °C 34601.5 hPa Calm     30 % 0 mm 717.0 W/m2 CLR
11:55 -6.6 °C -15.9 °C 34601.5 hPa ENE 15 km/h 15 km/h 33 % 0 mm 726.0 W/m2 CLR
12:00 -6.4 °C -16.8 °C 34591.4 hPa ENE 9 km/h 9 km/h 29 % 0 mm 740.0 W/m2 CLR
12:05 -6.2 °C -16.9 °C 34591.4 hPa NNE 9 km/h 9 km/h 28 % 0 mm 745.0 W/m2 CLR
12:10 -6.1 °C -17.1 °C 34591.4 hPa NNE 9 km/h 9 km/h 27 % 0 mm 756.0 W/m2 CLR
12:15 -6.1 °C -16.7 °C 34591.4 hPa ENE 15 km/h 15 km/h 28 % 0 mm 763.0 W/m2 CLR
12:20 -6.1 °C -15.9 °C 34591.4 hPa ENE 18.2 km/h 18.2 km/h 31 % 0 mm 772.0 W/m2 CLR
12:25 -6 °C -15.9 °C 34591.4 hPa NNE 11.9 km/h 11.9 km/h 31 % 0 mm 782.0 W/m2 CLR
12:30 -5.9 °C -15.6 °C 34591.4 hPa ENE 17.9 km/h 17.9 km/h 32 % 0 mm 784.0 W/m2 CLR
12:35 -5.9 °C -15.1 °C 34591.4 hPa Calm     34 % 0 mm 789.0 W/m2 CLR
12:40 -5.8 °C -15.1 °C 34591.4 hPa North 6 km/h 6 km/h 34 % 0 mm 803.0 W/m2 CLR
12:45 -5.7 °C -14.7 °C 34591.4 hPa ENE 9 km/h 9 km/h 35 % 0 mm 807.0 W/m2 CLR
12:50 -5.8 °C -15.2 °C 34577.8 hPa Calm     33 % 0 mm 816.0 W/m2 CLR
12:55 -5.7 °C -15.2 °C 34577.8 hPa NE 3.1 km/h 3.1 km/h 33 % 0 mm 819.0 W/m2 CLR
13:00 -5.5 °C -15.2 °C 34577.8 hPa SE 11.9 km/h 11.9 km/h 32 % 0 mm 830.0 W/m2 CLR
13:05 -5.6 °C -16.3 °C 34577.8 hPa SE 28.5 km/h 28.5 km/h 28 % 0 mm 835.0 W/m2 CLR
13:10 -5.7 °C -16.7 °C 34577.8 hPa East 20.9 km/h 20.9 km/h 27 % 0 mm 838.0 W/m2 CLR
13:15 -5.7 °C -16.4 °C 34577.8 hPa East 20.9 km/h 20.9 km/h 28 % 0 mm 838.0 W/m2 CLR
13:20 -5.7 °C -16.7 °C 34567.7 hPa ESE 15 km/h 15 km/h 27 % 0 mm 849.0 W/m2 CLR
13:25 -5.5 °C -16.3 °C 34567.7 hPa ENE 23.3 km/h 23.3 km/h 28 % 0 mm 847.0 W/m2 CLR
13:30 -5.3 °C -15.9 °C 34567.7 hPa Calm     29 % 0 mm 849.0 W/m2 CLR
13:35 -5.1 °C -15.4 °C 34567.7 hPa SSE 15 km/h 15 km/h 30 % 0 mm 856.0 W/m2 CLR
13:40 -5.1 °C -16.8 °C 34554.1 hPa SSE 20.9 km/h 20.9 km/h 25 % 0 mm 858.0 W/m2 CLR
13:41 -5 °C -16.7 °C 34567.7 hPa SSE 20.9 km/h 20.9 km/h 25 % 0 mm 856.0 W/m2 CLR
13:46 -5.1 °C -16.2 °C 34554.1 hPa South 17.9 km/h 17.9 km/h 27 % 0 mm 856.0 W/m2 CLR
13:51 -4.9 °C -15.2 °C 34554.1 hPa East 17.9 km/h 17.9 km/h 30 % 0 mm 860.0 W/m2 CLR
13:56 -4.9 °C -17 °C 34554.1 hPa SSE 32.8 km/h 32.8 km/h 24 % 0 mm 867.0 W/m2 CLR
14:01 -5.1 °C -17.4 °C 34554.1 hPa SSE 17.9 km/h 17.9 km/h 23 % 0 mm 867.0 W/m2 CLR
14:06 -5.2 °C -17.2 °C 34554.1 hPa ESE 29.8 km/h 29.8 km/h 24 % 0 mm 863.0 W/m2 CLR
14:11 -5.1 °C -17.1 °C 34554.1 hPa SE 9 km/h 9 km/h 24 % 0 mm 863.0 W/m2 CLR
14:16 -5.1 °C -17.4 °C 34544 hPa ESE 23.8 km/h 23.8 km/h 23 % 0 mm 861.0 W/m2 CLR
14:21 -4.9 °C -17 °C 34544 hPa SE 15 km/h 15 km/h 24 % 0 mm 861.0 W/m2 CLR
14:26 -4.9 °C -17 °C 34544 hPa ESE 29.8 km/h 29.8 km/h 24 % 0 mm 861.0 W/m2 CLR
14:31 -4.9 °C -17 °C 34544 hPa SE 20.9 km/h 20.9 km/h 24 % 0 mm 858.0 W/m2 CLR
14:36 -4.9 °C -17 °C 34544 hPa SE 26.9 km/h 26.9 km/h 24 % 0 mm 856.0 W/m2 CLR
14:41 -5 °C -17.4 °C 34544 hPa SSE 10.3 km/h 10.3 km/h 23 % 0 mm 849.0 W/m2 CLR
14:46 -4.9 °C -17.3 °C 34544 hPa East 10.3 km/h 10.3 km/h 23 % 0 mm 842.0 W/m2 CLR
14:51 -4.9 °C -17.3 °C 34533.8 hPa East 26.9 km/h 26.9 km/h 23 % 0 mm 838.0 W/m2 CLR
14:56 -4.8 °C -16.9 °C 34533.8 hPa ENE 11.9 km/h 11.9 km/h 24 % 0 mm 833.0 W/m2 CLR
15:01 -4.7 °C -16.8 °C 34533.8 hPa SE 20.8 km/h 20.8 km/h 24 % 0 mm 835.0 W/m2 CLR
15:06 -4.7 °C -16.8 °C 34533.8 hPa East 20.9 km/h 20.9 km/h 24 % 0 mm 830.0 W/m2 CLR
15:11 -4.8 °C -17.9 °C 34533.8 hPa SE 29.8 km/h 29.8 km/h 21 % 0 mm 821.0 W/m2 CLR
15:16 -4.8 °C -17.6 °C 34533.8 hPa ESE 25.9 km/h 25.9 km/h 22 % 0 mm 814.0 W/m2 CLR
15:21 -4.8 °C -17.9 °C 34533.8 hPa East 33.6 km/h 33.6 km/h 21 % 0 mm 809.0 W/m2 CLR
15:26 -4.7 °C -17.8 °C 34520.3 hPa East 29.8 km/h 29.8 km/h 21 % 0 mm 803.0 W/m2 CLR
15:31 -4.6 °C -17.7 °C 34520.3 hPa East 18.2 km/h 18.2 km/h 21 % 0 mm 793.0 W/m2 CLR
15:36 -4.8 °C -17.9 °C 34520.3 hPa East 26.9 km/h 26.9 km/h 21 % 0 mm 788.0 W/m2 CLR
15:41 -4.7 °C -17.4 °C 34520.3 hPa ENE 15 km/h 15 km/h 22 % 0 mm 782.0 W/m2 CLR
15:46 -4.6 °C -17.7 °C 34520.3 hPa ESE 29.8 km/h 29.8 km/h 21 % 0 mm 773.0 W/m2 CLR
15:51 -4.6 °C -18.1 °C 34520.3 hPa ESE 17.9 km/h 17.9 km/h 20 % 0 mm 768.0 W/m2 CLR
15:56 -4.7 °C -18.2 °C 34520.3 hPa ESE 31.1 km/h 31.1 km/h 20 % 0 mm 756.0 W/m2 CLR
16:01 -4.8 °C -17.5 °C 34520.3 hPa SE 11.9 km/h 11.9 km/h 22 % 0 mm 747.0 W/m2 CLR
16:06 -4.7 °C -17.8 °C 34510.1 hPa ENE 17.9 km/h 17.9 km/h 21 % 0 mm 737.0 W/m2 CLR
16:11 -4.6 °C -17.7 °C 34510.1 hPa ENE 20.9 km/h 20.9 km/h 21 % 0 mm 728.0 W/m2 CLR
16:16 -4.6 °C -17.7 °C 34510.1 hPa SE 29.8 km/h 29.8 km/h 21 % 0 mm 719.0 W/m2 CLR
16:21 -4.6 °C -17.4 °C 34510.1 hPa SE 20.9 km/h 20.9 km/h 22 % 0 mm 707.0 W/m2 CLR
16:22 -4.6 °C -17.7 °C 34510.1 hPa ESE 20.9 km/h 20.9 km/h 21 % 0 mm 705.0 W/m2 CLR
16:26 -4.7 °C -17.8 °C 34510.1 hPa ESE 32.8 km/h 32.8 km/h 21 % 0 mm 694.0 W/m2 CLR
16:31 -4.7 °C -17.4 °C 34510.1 hPa SSE 35.7 km/h 35.7 km/h 22 % 0 mm 680.0 W/m2 CLR
16:36 -4.7 °C -17.8 °C 34510.1 hPa East 20.9 km/h 20.9 km/h 21 % 0 mm 670.0 W/m2 CLR
16:37 -4.7 °C -17.8 °C 34510.1 hPa ESE 26.9 km/h 26.9 km/h 21 % 0 mm 668.0 W/m2 CLR
16:42 -4.7 °C -17.4 °C 34510.1 hPa SE 20.9 km/h 20.9 km/h 22 % 0 mm 656.0 W/m2 CLR
16:47 -4.6 °C -17.4 °C 34510.1 hPa SE 26.9 km/h 26.9 km/h 22 % 0 mm 645.0 W/m2 CLR
16:52 -4.7 °C -17.4 °C 34510.1 hPa East 20.9 km/h 20.9 km/h 22 % 0 mm 631.0 W/m2 CLR
16:57 -4.7 °C -17.1 °C 34510.1 hPa East 29.8 km/h 29.8 km/h 23 % 0 mm 617.0 W/m2 CLR
17:02 -4.8 °C -17.2 °C 34510.1 hPa East 15 km/h 15 km/h 23 % 0 mm 603.0 W/m2 CLR
17:07 -4.8 °C -17.2 °C 34510.1 hPa SE 20.9 km/h 20.9 km/h 23 % 0 mm 589.0 W/m2 CLR
17:12 -4.8 °C -17.3 °C 34510.1 hPa ESE 35.7 km/h 35.7 km/h 23 % 0 mm 577.0 W/m2 CLR
17:17 -4.8 °C -16.9 °C 34510.1 hPa ESE 29.8 km/h 29.8 km/h 24 % 0 mm 563.0 W/m2 CLR
17:22 -4.9 °C -17 °C 34496.6 hPa SE 35.7 km/h 35.7 km/h 24 % 0 mm 550.0 W/m2 CLR
17:27 -4.9 °C -17 °C 34496.6 hPa SE 38.8 km/h 38.8 km/h 24 % 0 mm 534.0 W/m2 CLR
17:32 -4.9 °C -17 °C 34510.1 hPa SE 26.9 km/h 26.9 km/h 24 % 0 mm 520.0 W/m2 CLR
17:37 -4.9 °C -17 °C 34510.1 hPa ESE 38.8 km/h 38.8 km/h 24 % 0 mm 504.0 W/m2 CLR
17:42 -4.9 °C -17 °C 34496.6 hPa SE 35.7 km/h 35.7 km/h 24 % 0 mm 489.0 W/m2 CLR
17:47 -4.9 °C -17 °C 34510.1 hPa SE 31.1 km/h 31.1 km/h 24 % 0 mm 471.0 W/m2 CLR
17:52 -5 °C -17.1 °C 34510.1 hPa East 29.8 km/h 29.8 km/h 24 % 0 mm 457.0 W/m2 CLR
17:57 -4.9 °C -17 °C 34510.1 hPa East 23.8 km/h 23.8 km/h 24 % 0 mm 441.0 W/m2 CLR
18:03 -5.1 °C -17.4 °C 34510.1 hPa ESE 35.7 km/h 35.7 km/h 23 % 0 mm 427.0 W/m2 CLR
18:08 -5.1 °C -17.1 °C 34510.1 hPa ESE 38.8 km/h 38.8 km/h 24 % 0 mm 411.0 W/m2 CLR
18:13 -5.1 °C -17.1 °C 34510.1 hPa ESE 25.9 km/h 25.9 km/h 24 % 0 mm 392.0 W/m2 CLR
18:18 -5.1 °C -17.4 °C 34510.1 hPa ESE 26.9 km/h 26.9 km/h 23 % 0 mm 376.0 W/m2 CLR
18:23 -5.2 °C -17.6 °C 34510.1 hPa ESE 33.6 km/h 33.6 km/h 23 % 0 mm 360.0 W/m2 CLR
18:28 -5.2 °C -17.6 °C 34510.1 hPa ESE 23.8 km/h 23.8 km/h 23 % 0 mm 345.0 W/m2 CLR
18:33 -5.2 °C -17.2 °C 34510.1 hPa SE 26.9 km/h 26.9 km/h 24 % 0 mm 327.0 W/m2 CLR
18:38 -5.3 °C -17.6 °C 34510.1 hPa ESE 29.8 km/h 29.8 km/h 23 % 0 mm 309.0 W/m2 CLR
18:43 -5.3 °C -17.3 °C 34510.1 hPa SE 35.7 km/h 35.7 km/h 24 % 0 mm 294.0 W/m2 CLR
18:48 -5.4 °C -17.1 °C 34510.1 hPa ESE 36.2 km/h 36.2 km/h 25 % 0 mm 276.0 W/m2 CLR
18:53 -5.4 °C -17.4 °C 34510.1 hPa SE 35.7 km/h 35.7 km/h 24 % 0 mm 257.0 W/m2 CLR
18:58 -5.5 °C -17.1 °C 34510.1 hPa SE 32.8 km/h 32.8 km/h 25 % 0 mm 239.0 W/m2 CLR
19:03 -5.6 °C -17.2 °C 34520.3 hPa SE 33.6 km/h 33.6 km/h 25 % 0 mm 221.0 W/m2 CLR
19:08 -5.6 °C -16.9 °C 34520.3 hPa SE 35.7 km/h 35.7 km/h 26 % 0 mm 207.0 W/m2 CLR
19:13 -5.7 °C -17 °C 34520.3 hPa SE 29.8 km/h 29.8 km/h 26 % 0 mm 181.0 W/m2 CLR
19:18 -5.7 °C -16.7 °C 34520.3 hPa SSE 32.8 km/h 32.8 km/h 27 % 0 mm 163.0 W/m2 CLR
19:23 -5.8 °C -16.8 °C 34520.3 hPa SE 35.7 km/h 35.7 km/h 27 % 0 mm 146.0 W/m2 CLR
19:28 -5.8 °C -16.8 °C 34520.3 hPa SE 26.9 km/h 26.9 km/h 27 % 0 mm 127.0 W/m2 CLR
19:33 -5.9 °C -16.6 °C 34520.3 hPa SSE 35.7 km/h 35.7 km/h 28 % 0 mm 111.0 W/m2 CLR
19:38 -6 °C -16.7 °C 34520.3 hPa SE 23.8 km/h 23.8 km/h 28 % 0 mm 91.0 W/m2 CLR
19:43 -6.1 °C -16.7 °C 34520.3 hPa SE 20.9 km/h 20.9 km/h 28 % 0 mm 77.0 W/m2 FEW
19:48 -6.1 °C -17.1 °C 34520.3 hPa SE 26.9 km/h 26.9 km/h 27 % 0 mm 51.0 W/m2 SCT
19:53 -6.2 °C -16.9 °C 34520.3 hPa SSE 20.9 km/h 20.9 km/h 28 % 0 mm 46.0 W/m2 SCT
19:58 -6.3 °C -16.7 °C 34533.8 hPa SSE 23.8 km/h 23.8 km/h 29 % 0 mm 35.0 W/m2 BKN
20:03 -6.4 °C -16.8 °C 34533.8 hPa SE 29.8 km/h 29.8 km/h 29 % 0 mm 26.0 W/m2 BKN
20:08 -6.5 °C -16.8 °C 34533.8 hPa SE 26.9 km/h 26.9 km/h 29 % 0 mm 16.0 W/m2 BKN
20:13 -6.6 °C -16.7 °C 34533.8 hPa SSE 26.9 km/h 26.9 km/h 30 % 0 mm 14.0 W/m2 BKN
20:18 -6.8 °C -16.8 °C 34533.8 hPa SE 20.9 km/h 20.9 km/h 30 % 0 mm 11.0 W/m2 BKN
20:23 -6.9 °C -16.7 °C 34533.8 hPa SE 17.9 km/h 17.9 km/h 31 % 0 mm 9.0 W/m2 BKN
20:28 -7 °C -16.5 °C 34533.8 hPa SE 23.8 km/h 23.8 km/h 32 % 0 mm 7.0 W/m2 BKN
20:33 -7.2 °C -16.7 °C 34533.8 hPa SE 20.8 km/h 20.8 km/h 32 % 0 mm 5.0 W/m2 OVC
20:38 -7.3 °C -16.5 °C 34533.8 hPa SSE 20.8 km/h 20.8 km/h 33 % 0 mm 0.0 W/m2 OVC
20:44 -7.4 °C -16.4 °C 34533.8 hPa SSE 15.6 km/h 15.6 km/h 34 % 0 mm 0.0 W/m2 CLR
20:49 -7.6 °C -16.3 °C 34544 hPa SSE 17.9 km/h 17.9 km/h 35 % 0 mm 0.0 W/m2 CLR
20:54 -7.7 °C -16.2 °C 34544 hPa SSE 17.9 km/h 17.9 km/h 36 % 0 mm 0.0 W/m2 CLR
20:59 -7.8 °C -16.3 °C 34544 hPa SSE 17.9 km/h 17.9 km/h 36 % 0 mm 0.0 W/m2 CLR
21:04 -7.9 °C -16.4 °C 34544 hPa SE 20.9 km/h 20.9 km/h 36 % 0 mm 0.0 W/m2 CLR
21:09 -8 °C -16.3 °C 34554.1 hPa SE 15 km/h 15 km/h 37 % 0 mm 0.0 W/m2 CLR
21:14 -8.1 °C -16.3 °C 34554.1 hPa SSE 11.9 km/h 11.9 km/h 37 % 0 mm 0.0 W/m2 CLR
21:19 -8.2 °C -16.2 °C 34554.1 hPa SE 15.6 km/h 15.6 km/h 38 % 0 mm 0.0 W/m2 CLR
21:24 -8.3 °C -16.3 °C 34567.7 hPa SSE 15.6 km/h 15.6 km/h 38 % 0 mm 0.0 W/m2 CLR
21:29 -8.3 °C -16.6 °C 34567.7 hPa SSE 20.9 km/h 20.9 km/h 37 % 0 mm 0.0 W/m2 CLR
21:34 -8.4 °C -16.4 °C 34567.7 hPa SSE 18.2 km/h 18.2 km/h 38 % 0 mm 0.0 W/m2 CLR
21:39 -8.4 °C -16.4 °C 34567.7 hPa SSE 18.2 km/h 18.2 km/h 38 % 0 mm 0.0 W/m2 CLR
21:44 -8.4 °C -16.4 °C 34577.8 hPa South 9 km/h 9 km/h 38 % 0 mm 0.0 W/m2 CLR
21:49 -8.4 °C -16.6 °C 34577.8 hPa SE 9 km/h 9 km/h 37 % 0 mm 0.0 W/m2 CLR
21:54 -8.5 °C -16.5 °C 34577.8 hPa SE 10.3 km/h 10.3 km/h 38 % 0 mm 0.0 W/m2 CLR
21:59 -8.7 °C -16.5 °C 34577.8 hPa ESE 10.3 km/h 10.3 km/h 39 % 0 mm 0.0 W/m2 CLR
22:04 -8.9 °C -16.5 °C 34577.8 hPa SE 15 km/h 15 km/h 40 % 0 mm 0.0 W/m2 CLR
22:09 -9.1 °C -16.6 °C 34577.8 hPa SE 11.9 km/h 11.9 km/h 40 % 0 mm 0.0 W/m2 CLR
22:14 -9.2 °C -16.5 °C 34577.8 hPa ESE 11.9 km/h 11.9 km/h 41 % 0 mm 0.0 W/m2 CLR
22:19 -9.3 °C -16.6 °C 34591.4 hPa SE 9 km/h 9 km/h 41 % 0 mm 0.0 W/m2 CLR
22:24 -9.3 °C -16.4 °C 34591.4 hPa Calm     42 % 0 mm 0.0 W/m2 CLR
22:29 -9.4 °C -16.6 °C 34591.4 hPa Calm     42 % 0 mm 0.0 W/m2 CLR
22:34 -9.6 °C -16.5 °C 34591.4 hPa Calm     43 % 0 mm 0.0 W/m2 CLR
22:39 -9.7 °C -16.6 °C 34591.4 hPa Calm     43 % 0 mm 0.0 W/m2 CLR
22:44 -9.8 °C -16.3 °C 34601.5 hPa Calm     45 % 0 mm 0.0 W/m2 CLR
22:49 -10 °C -16.6 °C 34601.5 hPa Calm     45 % 0 mm 0.0 W/m2 CLR
22:54 -10.2 °C -16.5 °C 34601.5 hPa Calm     46 % 0 mm 0.0 W/m2 CLR
22:59 -10.3 °C -16.7 °C 34601.5 hPa Calm     46 % 0 mm 0.0 W/m2 CLR
23:04 -10.4 °C -16.7 °C 34601.5 hPa Calm     46 % 0 mm 0.0 W/m2 CLR
23:09 -10.4 °C -16.7 °C 34601.5 hPa Calm     46 % 0 mm 0.0 W/m2 CLR
23:14 -10.4 °C -16.6 °C 34601.5 hPa Calm     47 % 0 mm 0.0 W/m2 CLR
23:19 -10.5 °C -16.6 °C 34611.7 hPa Calm     47 % 0 mm 0.0 W/m2 CLR
Lo Temps de Massalio
Compliments of Weather Underground - 768 kb